Walton, Canada
Current Conditions -  °F | °C
As of 4:00 PM on Thursday 29 Jan 2015 (Local Time) from CYHZ Reporting Station
Few Clouds Few Clouds  
Wind Chill: 12°   Ceiling: Unl
Heat Index: 23°   Visibility: 15mi
Dew Point: 16°   Wind: 12mph
Humidity: 74%   Direction: 10°N
Pressure: 30.14"   Gusts: NA
Location:  45.22°N, 64.02°W
Report Text: CYHZ 292000Z 01010KT 15SM FEW015 M05/M09 A3014 RMK SC1 SLP218
Loading
Personal Weather Stations






























Interactive Weather Map New forecast layout! Learn more

10-Day Weather Forecast

Advertisements
Track Severe Weather on mobile